Time;durP1;ratioP1;P1;durP2;ratioP2;P2;SDS_P1;SDS_P2;PMS_P1;PMS_P2;Temp;Humidity;BMP_temperature;BMP_pressure;BME280_temperature;BME280_humidity;BME280_pressure;Samples;Min_cycle;Max_cycle;Signal;HPM_P1;HPM_P2
2022/11/05 00:10:09;;;;;;;3.40;3.13;;;9.40;99.90;;;;;;4996497;28;20440;-68
2022/11/05 00:18:04;;;;;;;5.73;4.10;;;9.40;99.90;;;;;;4996427;28;20517;-68
2022/11/05 00:20:29;;;;;;;3.77;3.37;;;9.50;99.90;;;;;;4996720;28;20446;-69
2022/11/05 00:25:54;;;;;;;5.20;3.37;;;9.50;99.90;;;;;;4995751;28;20183;-67
2022/11/05 00:28:20;;;;;;;3.60;3.30;;;9.50;99.90;;;;;;4995870;28;20414;-67
2022/11/05 00:30:46;;;;;;;3.80;3.50;;;9.50;99.90;;;;;;4996119;28;20485;-67
2022/11/05 00:33:11;;;;;;;4.73;3.63;;;9.50;99.90;;;;;;4996038;28;20921;-70
2022/11/05 00:35:37;;;;;;;4.33;3.53;;;9.60;99.90;;;;;;4996022;28;20171;-68
2022/11/05 00:38:02;;;;;;;3.67;2.87;;;9.50;99.90;;;;;;4995908;28;20629;-67
2022/11/05 00:40:28;;;;;;;2.77;2.53;;;9.60;99.90;;;;;;4995714;28;20585;-67
2022/11/05 00:45:38;;;;;;;2.80;2.10;;;9.50;99.90;;;;;;4995944;28;20233;-68
2022/11/05 00:50:48;;;;;;;3.00;2.70;;;9.60;99.90;;;;;;4995751;28;20425;-67
2022/11/05 00:53:14;;;;;;;2.50;2.30;;;9.60;99.90;;;;;;4994368;28;20879;-68
2022/11/05 00:55:44;;;;;;;2.70;2.40;;;9.60;99.90;;;;;;4995699;28;20247;-67
2022/11/05 00:58:12;;;;;;;3.10;2.40;;;9.50;99.90;;;;;;4995480;28;20247;-68
2022/11/05 01:00:40;;;;;;;2.70;2.50;;;9.50;99.90;;;;;;4995667;28;20422;-69
2022/11/05 01:03:11;;;;;;;2.40;2.20;;;9.50;99.90;;;;;;4995365;28;20461;-68
2022/11/05 01:05:42;;;;;;;4.07;2.33;;;9.50;99.90;;;;;;4995628;28;20830;-69
2022/11/05 01:08:09;;;;;;;2.70;1.97;;;9.50;99.90;;;;;;4994847;28;20415;-67
2022/11/05 01:10:49;;;;;;;5.13;2.07;;;9.50;99.90;;;;;;4995276;28;20411;-67
2022/11/05 01:13:27;;;;;;;1.70;1.60;;;9.50;99.90;;;;;;4995305;28;20442;-67
2022/11/05 01:15:54;;;;;;;2.23;2.10;;;9.50;99.90;;;;;;4995512;28;20425;-69
2022/11/05 01:18:21;;;;;;;2.00;1.90;;;9.50;99.90;;;;;;4994992;28;20418;-67
2022/11/05 01:20:47;;;;;;;3.70;2.07;;;9.50;99.90;;;;;;4995099;28;20943;-67
2022/11/05 01:23:13;;;;;;;2.27;2.00;;;9.60;99.90;;;;;;4995004;28;20449;-67
2022/11/05 01:25:39;;;;;;;2.70;1.90;;;9.60;99.90;;;;;;4995101;28;20423;-68
2022/11/05 01:28:05;;;;;;;3.27;2.10;;;9.60;99.90;;;;;;4994972;28;20222;-69
2022/11/05 01:30:31;;;;;;;4.17;2.20;;;9.60;99.90;;;;;;4994923;28;20167;-68
2022/11/05 01:32:56;;;;;;;2.67;1.80;;;9.60;99.90;;;;;;4995001;28;20446;-69
2022/11/05 01:35:22;;;;;;;2.77;1.97;;;9.60;99.90;;;;;;4994899;28;20179;-67
2022/11/05 01:37:47;;;;;;;2.10;1.90;;;9.60;99.90;;;;;;4994921;28;20257;-69
2022/11/05 01:40:16;;;;;;;3.10;2.07;;;9.50;99.90;;;;;;4994622;28;20182;-67
2022/11/05 01:42:41;;;;;;;2.30;1.70;;;9.60;99.90;;;;;;4994564;28;20601;-67
2022/11/05 01:45:24;;;;;;;2.83;2.20;;;9.60;99.90;;;;;;4994762;28;20419;-67
2022/11/05 01:48:01;;;;;;;2.00;1.90;;;9.60;99.90;;;;;;4994835;28;20541;-67
2022/11/05 01:50:35;;;;;;;2.23;1.90;;;9.50;99.90;;;;;;4994374;28;20415;-70
2022/11/05 01:53:16;;;;;;;2.70;2.50;;;9.50;99.90;;;;;;4994541;28;20446;-68
2022/11/05 01:56:03;;;;;;;2.80;2.60;;;9.50;99.90;;;;;;4994591;28;20429;-68
2022/11/05 01:58:39;;;;;;;3.67;2.47;;;9.50;99.90;;;;;;4994264;28;20410;-67
2022/11/05 02:01:05;;;;;;;5.07;2.60;;;9.40;99.90;;;;;;4994468;28;20425;-68
2022/11/05 02:03:31;;;;;;;2.07;1.77;;;9.30;99.90;;;;;;4994299;28;20438;-67
2022/11/05 02:05:59;;;;;;;3.13;2.80;;;9.20;99.90;;;;;;4994319;28;20183;-67
2022/11/05 02:08:45;;;;;;;4.20;2.13;;;9.20;99.90;;;;;;4994053;28;20179;-67
2022/11/05 02:11:13;;;;;;;4.57;2.23;;;9.20;99.90;;;;;;4994334;28;20426;-69
2022/11/05 02:13:39;;;;;;;2.30;2.13;;;9.20;99.90;;;;;;4994202;28;20485;-67
2022/11/05 02:16:13;;;;;;;3.93;2.30;;;9.20;99.90;;;;;;4994109;28;20419;-68
2022/11/05 02:18:46;;;;;;;3.17;1.90;;;9.10;99.90;;;;;;4993887;28;20423;-67
2022/11/05 02:21:23;;;;;;;2.13;2.03;;;9.10;99.90;;;;;;4993197;28;20486;-68
2022/11/05 02:24:25;;;;;;;1.90;1.67;;;9.20;99.90;;;;;;4994402;28;20928;-70
2022/11/05 02:27:19;;;;;;;2.20;1.87;;;9.20;99.90;;;;;;4992805;28;20452;-67
2022/11/05 02:30:03;;;;;;;1.77;1.67;;;9.30;99.90;;;;;;4993700;28;20417;-67
2022/11/05 02:32:56;;;;;;;2.40;1.87;;;9.30;99.90;;;;;;4993779;28;20434;-68
2022/11/05 02:35:29;;;;;;;3.20;2.60;;;9.40;99.90;;;;;;4993783;28;20959;-68
2022/11/05 02:38:07;;;;;;;2.27;1.97;;;9.40;99.90;;;;;;4993687;28;20497;-68
2022/11/05 02:40:56;;;;;;;1.90;1.70;;;9.50;99.90;;;;;;4993498;28;20429;-68
2022/11/05 02:43:33;;;;;;;1.63;1.53;;;9.40;99.90;;;;;;4993661;28;20922;-68
2022/11/05 02:46:19;;;;;;;2.37;2.07;;;9.50;99.90;;;;;;4993662;28;20421;-67
2022/11/05 02:49:05;;;;;;;2.13;1.73;;;9.40;99.90;;;;;;4992031;28;20421;-68
2022/11/05 02:51:55;;;;;;;2.10;1.93;;;9.40;99.90;;;;;;4993547;28;20513;-67
2022/11/05 02:54:27;;;;;;;3.97;1.93;;;9.40;99.90;;;;;;4993546;28;20419;-67
2022/11/05 02:56:56;;;;;;;2.63;1.80;;;9.40;99.90;;;;;;4993328;28;20955;-67
2022/11/05 02:59:21;;;;;;;1.97;1.77;;;9.50;99.90;;;;;;4993108;28;20790;-68
2022/11/05 03:01:49;;;;;;;1.93;1.83;;;9.40;99.90;;;;;;4993108;28;20459;-68
2022/11/05 03:04:18;;;;;;;2.30;2.10;;;9.40;99.90;;;;;;4993282;28;20180;-67
2022/11/05 03:07:21;;;;;;;2.33;2.10;;;9.40;99.90;;;;;;4993280;28;20961;-71
2022/11/05 03:10:11;;;;;;;2.40;2.20;;;9.40;99.90;;;;;;4992924;28;20469;-66
2022/11/05 03:13:00;;;;;;;2.87;2.10;;;9.50;99.90;;;;;;4993151;28;20440;-68
2022/11/05 03:15:47;;;;;;;4.80;3.50;;;9.50;99.90;;;;;;4992905;28;20423;-67
2022/11/05 03:18:20;;;;;;;1.90;1.70;;;9.40;99.90;;;;;;4992866;28;20948;-68
2022/11/05 03:20:53;;;;;;;2.50;2.10;;;9.40;99.90;;;;;;4993030;28;20450;-68
2022/11/05 03:23:27;;;;;;;2.10;1.77;;;9.40;99.90;;;;;;4993002;28;20533;-67
2022/11/05 03:26:03;;;;;;;3.13;2.30;;;9.40;99.90;;;;;;4992970;28;20407;-68
2022/11/05 03:28:33;;;;;;;4.50;2.70;;;9.30;99.90;;;;;;4992700;28;20449;-69
2022/11/05 03:31:01;;;;;;;2.17;1.97;;;9.30;99.90;;;;;;4992728;28;20475;-67
2022/11/05 03:33:32;;;;;;;3.20;2.30;;;9.30;99.90;;;;;;4992771;28;20430;-69
2022/11/05 03:36:03;;;;;;;2.40;2.20;;;9.30;99.90;;;;;;4992812;28;20437;-70
2022/11/05 03:38:36;;;;;;;2.60;2.40;;;9.30;99.90;;;;;;4992674;28;20501;-68
2022/11/05 03:41:06;;;;;;;2.80;2.33;;;9.30;99.90;;;;;;4992516;28;20426;-67
2022/11/05 03:43:36;;;;;;;5.40;2.43;;;9.20;99.90;;;;;;4992715;28;20486;-67
2022/11/05 03:46:10;;;;;;;3.37;2.90;;;9.20;99.90;;;;;;4992737;28;20475;-67
2022/11/05 03:48:42;;;;;;;2.53;2.10;;;9.20;99.90;;;;;;4992432;28;20433;-68
2022/11/05 03:51:19;;;;;;;4.70;2.07;;;9.20;99.90;;;;;;4992750;28;20802;-67
2022/11/05 03:53:56;;;;;;;2.97;2.77;;;9.20;99.90;;;;;;4992658;28;20426;-67
2022/11/05 03:56:43;;;;;;;3.87;2.57;;;9.20;99.90;;;;;;4992548;28;20430;-67
2022/11/05 03:59:10;;;;;;;2.67;2.30;;;9.30;99.90;;;;;;4992172;28;20477;-66
2022/11/05 04:01:37;;;;;;;2.60;2.40;;;9.30;99.90;;;;;;4992327;28;20481;-69
2022/11/05 04:04:04;;;;;;;3.87;2.80;;;9.40;99.90;;;;;;4992453;28;20422;-68
2022/11/05 04:14:47;;;;;;;3.87;2.80;;;9.30;99.90;;;;;;4992283;28;20477;-68
2022/11/05 04:17:13;;;;;;;2.10;1.90;;;9.30;99.90;;;;;;4992325;28;20422;-68
2022/11/05 04:25:11;;;;;;;7.93;3.23;;;9.20;99.90;;;;;;4992447;28;20875;-67
2022/11/05 04:27:37;;;;;;;2.90;2.70;;;9.20;99.90;;;;;;4992225;28;20433;-67
2022/11/05 04:30:19;;;;;;;4.33;2.87;;;9.20;99.90;;;;;;4991883;28;20514;-67
2022/11/05 04:33:08;;;;;;;3.47;2.70;;;9.00;99.90;;;;;;4992013;28;20209;-67
2022/11/05 04:35:38;;;;;;;3.73;2.93;;;8.90;99.90;;;;;;4992276;28;21011;-67
2022/11/05 04:38:06;;;;;;;3.70;3.00;;;8.90;99.90;;;;;;4992284;28;20497;-67
2022/11/05 04:40:32;;;;;;;2.97;2.60;;;9.00;99.90;;;;;;4992067;28;20423;-67
2022/11/05 04:42:57;;;;;;;2.73;2.43;;;8.90;99.90;;;;;;4992133;28;20859;-68
2022/11/05 04:45:25;;;;;;;2.60;2.40;;;8.90;99.90;;;;;;4995928;28;20207;-68
2022/11/05 04:47:51;;;;;;;3.50;2.83;;;9.00;99.90;;;;;;4995817;28;20172;-67
2022/11/05 04:50:16;;;;;;;2.67;2.47;;;9.00;99.90;;;;;;4995571;28;20924;-68
2022/11/05 04:52:42;;;;;;;4.90;2.90;;;8.90;99.90;;;;;;4995716;28;20250;-68
2022/11/05 04:55:08;;;;;;;2.97;2.67;;;8.90;99.90;;;;;;4994467;28;20271;-67
2022/11/05 04:57:34;;;;;;;2.40;2.20;;;8.80;99.90;;;;;;4995672;28;20211;-67
2022/11/05 05:00:00;;;;;;;2.30;2.00;;;8.80;99.90;;;;;;4995242;28;20422;-67
2022/11/05 05:02:25;;;;;;;2.30;2.20;;;8.80;99.90;;;;;;4995412;28;20716;-67
2022/11/05 05:04:51;;;;;;;4.23;1.93;;;8.80;99.90;;;;;;4995509;28;20630;-68
2022/11/05 05:07:16;;;;;;;2.63;2.43;;;8.80;99.90;;;;;;4995643;28;20266;-67
2022/11/05 05:09:42;;;;;;;3.10;2.07;;;8.80;99.90;;;;;;4995200;28;20191;-68
2022/11/05 05:12:07;;;;;;;4.27;2.87;;;8.90;99.90;;;;;;4995331;28;20238;-68
2022/11/05 05:14:33;;;;;;;1.80;1.70;;;8.90;99.90;;;;;;4995354;28;20190;-68
2022/11/05 05:16:59;;;;;;;2.63;2.43;;;8.90;99.90;;;;;;4995331;28;20184;-67
2022/11/05 05:19:25;;;;;;;2.53;2.10;;;8.90;99.90;;;;;;4994960;28;20179;-67
2022/11/05 05:21:50;;;;;;;3.80;2.40;;;9.00;99.90;;;;;;4995028;28;20215;-68
2022/11/05 05:24:18;;;;;;;3.30;1.97;;;9.00;99.90;;;;;;4994694;28;20481;-68
2022/11/05 05:26:48;;;;;;;3.40;2.10;;;8.90;99.90;;;;;;4995222;28;20180;-68
2022/11/05 05:29:15;;;;;;;4.70;2.43;;;8.90;99.90;;;;;;4994885;28;20419;-68
2022/11/05 05:31:41;;;;;;;3.17;2.07;;;8.90;99.90;;;;;;4994927;28;20442;-68
2022/11/05 05:34:10;;;;;;;2.13;2.00;;;8.90;99.90;;;;;;4995091;28;20517;-68
2022/11/05 05:36:36;;;;;;;2.20;1.90;;;8.90;99.90;;;;;;4995026;28;20498;-68
2022/11/05 05:39:05;;;;;;;2.63;2.10;;;8.90;99.90;;;;;;4994805;28;20494;-68
2022/11/05 05:41:31;;;;;;;3.30;2.60;;;8.90;99.90;;;;;;4994701;28;20211;-67
2022/11/05 05:43:56;;;;;;;2.23;2.03;;;9.00;99.90;;;;;;4994888;28;20505;-66
2022/11/05 05:46:22;;;;;;;2.80;2.60;;;9.00;99.90;;;;;;4994742;28;20941;-68
2022/11/05 05:48:49;;;;;;;2.40;2.20;;;9.00;99.90;;;;;;4994490;28;20172;-68
2022/11/05 05:51:16;;;;;;;3.80;3.47;;;9.00;99.90;;;;;;4994722;28;20266;-67
2022/11/05 05:53:41;;;;;;;3.80;2.90;;;9.00;99.90;;;;;;4994671;28;20799;-67
2022/11/05 05:56:07;;;;;;;3.47;3.17;;;9.00;99.90;;;;;;4994549;28;20419;-68
2022/11/05 05:58:35;;;;;;;3.00;2.80;;;9.00;99.90;;;;;;4994289;28;20266;-68
2022/11/05 06:01:12;;;;;;;5.60;3.40;;;8.90;99.90;;;;;;4994310;28;20560;-68
2022/11/05 06:03:38;;;;;;;4.07;3.67;;;8.90;99.90;;;;;;4994526;28;20796;-68
2022/11/05 06:06:06;;;;;;;3.80;3.50;;;8.90;99.90;;;;;;4994400;28;20429;-69
2022/11/05 06:08:32;;;;;;;6.47;4.43;;;8.90;99.90;;;;;;4994104;28;20474;-67
2022/11/05 06:10:58;;;;;;;6.43;5.60;;;8.90;99.90;;;;;;4994386;28;21105;-67
2022/11/05 06:13:25;;;;;;;8.03;6.43;;;8.90;99.90;;;;;;4994105;28;20525;-68
2022/11/05 06:15:51;;;;;;;5.73;5.13;;;8.90;99.90;;;;;;4994219;28;20764;-69
2022/11/05 06:18:16;;;;;;;8.83;7.50;;;8.80;99.90;;;;;;4993921;28;20454;-67
2022/11/05 06:20:42;;;;;;;10.20;8.30;;;8.80;99.90;;;;;;4994632;28;20748;-68
2022/11/05 06:23:07;;;;;;;9.97;8.70;;;8.90;99.90;;;;;;4993920;28;20219;-67
2022/11/05 06:25:33;;;;;;;12.23;9.20;;;8.90;99.90;;;;;;4993752;28;20546;-68
2022/11/05 06:27:58;;;;;;;9.60;8.60;;;8.90;99.90;;;;;;4993930;28;20180;-68
2022/11/05 06:30:24;;;;;;;11.17;9.60;;;8.90;99.90;;;;;;4993803;28;20187;-68
2022/11/05 06:32:49;;;;;;;14.90;11.07;;;8.90;99.90;;;;;;4993839;28;20222;-68
2022/11/05 06:35:15;;;;;;;14.67;13.17;;;9.00;99.90;;;;;;4993873;28;20548;-68
2022/11/05 06:37:41;;;;;;;14.30;11.87;;;9.00;99.90;;;;;;4993848;28;20190;-67
2022/11/05 06:40:07;;;;;;;16.83;13.37;;;9.00;99.90;;;;;;4993458;28;20179;-67
2022/11/05 06:42:33;;;;;;;16.37;13.27;;;9.00;99.90;;;;;;4993422;28;20211;-68
2022/11/05 06:44:58;;;;;;;17.40;15.60;;;9.00;99.90;;;;;;4993643;28;20442;-68
2022/11/05 06:47:24;;;;;;;20.67;15.73;;;9.00;99.90;;;;;;4993680;28;20176;-69
2022/11/05 06:49:49;;;;;;;18.07;14.60;;;9.10;99.90;;;;;;4992065;28;20182;-67
2022/11/05 06:52:15;;;;;;;22.40;17.83;;;9.10;99.90;;;;;;4993475;28;20191;-68
2022/11/05 06:54:42;;;;;;;20.03;16.43;;;9.10;99.90;;;;;;4993507;28;20575;-68
2022/11/05 06:57:09;;;;;;;18.17;14.17;;;9.10;99.90;;;;;;4993447;28;20472;-67
2022/11/05 06:59:36;;;;;;;21.30;16.33;;;9.10;99.90;;;;;;4993062;28;20831;-68
2022/11/05 07:02:01;;;;;;;17.50;14.60;;;9.20;99.90;;;;;;4993239;28;20459;-69
2022/11/05 07:04:27;;;;;;;20.10;15.90;;;9.20;99.90;;;;;;4993414;28;20485;-68
2022/11/05 07:06:52;;;;;;;20.80;16.43;;;9.20;99.90;;;;;;4992877;28;20180;-68
2022/11/05 07:09:18;;;;;;;20.07;15.17;;;9.30;99.90;;;;;;4992951;28;20210;-69
2022/11/05 07:11:43;;;;;;;20.73;16.30;;;9.30;99.90;;;;;;4993127;28;20206;-67
2022/11/05 07:14:09;;;;;;;17.87;15.13;;;9.30;99.90;;;;;;4993173;28;20178;-69
2022/11/05 07:16:34;;;;;;;19.47;16.80;;;9.30;99.90;;;;;;4993202;28;20168;-68
2022/11/05 07:19:00;;;;;;;25.23;16.83;;;9.30;99.90;;;;;;4992793;28;20652;-67
2022/11/05 07:21:26;;;;;;;19.87;17.80;;;9.30;99.90;;;;;;4992973;28;20191;-70
2022/11/05 07:23:52;;;;;;;21.63;15.23;;;9.20;99.90;;;;;;4992805;28;20175;-67
2022/11/05 07:26:17;;;;;;;19.03;16.10;;;9.20;99.90;;;;;;4993081;28;20422;-68
2022/11/05 07:28:43;;;;;;;19.93;16.60;;;9.20;99.90;;;;;;4992661;28;20187;-68
2022/11/05 07:31:08;;;;;;;24.27;18.03;;;9.20;99.90;;;;;;4992938;28;20178;-68
2022/11/05 07:33:34;;;;;;;24.40;18.37;;;9.20;99.90;;;;;;4992790;28;20759;-68
2022/11/05 07:35:59;;;;;;;22.07;18.70;;;9.20;99.90;;;;;;4992859;28;20170;-67
2022/11/05 07:38:25;;;;;;;25.43;19.97;;;9.30;99.90;;;;;;4992603;28;20170;-68
2022/11/05 07:40:51;;;;;;;20.83;17.17;;;9.30;99.90;;;;;;4991605;28;20179;-69
2022/11/05 07:43:16;;;;;;;19.90;15.83;;;9.30;99.90;;;;;;4992583;28;20219;-68
2022/11/05 07:45:43;;;;;;;18.53;15.80;;;9.30;99.90;;;;;;4992785;28;20180;-68
2022/11/05 07:48:09;;;;;;;23.97;17.73;;;9.30;99.90;;;;;;4992672;28;20172;-68
2022/11/05 07:50:36;;;;;;;21.10;17.30;;;9.30;99.90;;;;;;4992518;28;20415;-68
2022/11/05 07:53:13;;;;;;;20.73;18.43;;;9.30;99.90;;;;;;4992676;28;20257;-68
2022/11/05 07:55:42;;;;;;;21.70;17.30;;;9.30;99.90;;;;;;4992669;28;20919;-69
2022/11/05 07:58:09;;;;;;;20.43;16.63;;;9.30;99.90;;;;;;4992522;28;20454;-69
2022/11/05 08:00:35;;;;;;;19.10;16.87;;;9.30;99.90;;;;;;4992523;28;20418;-67
2022/11/05 08:03:10;;;;;;;21.10;17.70;;;9.30;99.90;;;;;;4992419;28;20466;-68
2022/11/05 08:05:38;;;;;;;21.00;16.20;;;9.30;99.90;;;;;;4992585;28;20321;-69
2022/11/05 08:08:06;;;;;;;18.90;13.73;;;9.30;99.90;;;;;;4992475;28;20451;-68
2022/11/05 08:10:32;;;;;;;20.17;13.30;;;9.20;99.90;;;;;;4992357;28;20787;-69
2022/11/05 08:12:58;;;;;;;17.70;13.70;;;9.20;99.90;;;;;;4992412;28;20442;-69
2022/11/05 08:15:24;;;;;;;14.43;11.97;;;9.10;99.90;;;;;;4992507;28;20418;-71
2022/11/05 08:17:56;;;;;;;12.37;11.07;;;9.10;99.90;;;;;;4992448;28;20179;-67
2022/11/05 08:20:21;;;;;;;10.23;8.93;;;9.00;99.90;;;;;;4996156;28;20186;-66
2022/11/05 08:22:47;;;;;;;9.80;8.20;;;9.00;99.90;;;;;;4996258;28;20470;-66
2022/11/05 08:25:12;;;;;;;9.23;8.00;;;9.00;99.90;;;;;;4996068;28;20578;-67
2022/11/05 08:27:39;;;;;;;9.47;7.77;;;8.90;99.90;;;;;;4995178;28;20172;-69
2022/11/05 08:30:06;;;;;;;10.70;8.23;;;9.00;99.90;;;;;;4995911;28;20218;-69
2022/11/05 08:32:32;;;;;;;10.17;8.03;;;9.00;99.90;;;;;;4995984;28;20434;-68
2022/11/05 08:34:57;;;;;;;7.30;6.50;;;9.10;99.90;;;;;;4996146;28;20426;-67
2022/11/05 08:37:23;;;;;;;9.47;7.83;;;9.10;99.90;;;;;;4996055;28;20175;-69
2022/11/05 08:39:49;;;;;;;7.97;7.07;;;9.00;99.90;;;;;;4995721;28;20275;-67
2022/11/05 08:42:14;;;;;;;7.57;6.73;;;9.00;99.90;;;;;;4995573;28;20219;-67
2022/11/05 08:44:40;;;;;;;6.80;6.10;;;9.00;99.90;;;;;;4996002;28;20186;-68
2022/11/05 08:47:05;;;;;;;7.07;6.37;;;9.00;99.90;;;;;;4995900;28;20637;-67
2022/11/05 08:49:31;;;;;;;6.80;6.07;;;9.10;99.90;;;;;;4994284;28;20179;-69
2022/11/05 08:51:56;;;;;;;7.40;5.53;;;9.00;99.90;;;;;;4995753;28;20206;-68
2022/11/05 08:54:22;;;;;;;11.57;8.90;;;9.10;99.90;;;;;;4995723;28;20302;-68
2022/11/05 08:56:47;;;;;;;7.43;6.50;;;9.00;99.90;;;;;;4995600;28;20229;-67
2022/11/05 08:59:13;;;;;;;6.37;5.83;;;9.10;99.90;;;;;;4995366;28;20883;-68
2022/11/05 09:01:39;;;;;;;6.73;5.87;;;9.20;99.90;;;;;;4995540;28;20582;-67
2022/11/05 09:04:04;;;;;;;8.20;6.90;;;9.20;99.90;;;;;;4995517;28;20174;-67
2022/11/05 09:06:30;;;;;;;7.50;5.50;;;9.30;99.90;;;;;;4995417;28;20728;-68
2022/11/05 09:08:55;;;;;;;6.03;5.30;;;9.40;99.90;;;;;;4995147;28;20175;-67
2022/11/05 09:11:21;;;;;;;6.70;6.03;;;9.40;99.90;;;;;;4995282;28;20218;-66
2022/11/05 09:13:46;;;;;;;6.70;6.00;;;9.40;99.90;;;;;;4995396;28;20812;-68
2022/11/05 09:16:23;;;;;;;7.80;7.00;;;9.40;99.90;;;;;;4995325;28;20164;-69
2022/11/05 09:18:49;;;;;;;6.80;5.90;;;9.40;99.90;;;;;;4995134;28;20549;-68
2022/11/05 09:21:16;;;;;;;7.97;5.10;;;9.40;99.90;;;;;;4995109;28;20423;-67
2022/11/05 09:23:43;;;;;;;8.30;6.70;;;9.30;99.90;;;;;;4994941;28;20186;-69
2022/11/05 09:26:09;;;;;;;7.80;6.30;;;9.50;99.90;;;;;;4995151;28;20511;-67
2022/11/05 09:28:34;;;;;;;6.20;5.00;;;9.60;99.90;;;;;;4994866;28;20847;-68
2022/11/05 09:31:08;;;;;;;6.60;6.00;;;9.70;99.90;;;;;;4993455;28;20565;-68
2022/11/05 09:33:35;;;;;;;5.90;4.80;;;9.80;99.90;;;;;;4995087;28;20221;-68
2022/11/05 09:36:01;;;;;;;5.40;4.87;;;10.00;99.90;;;;;;4994940;28;20423;-67
2022/11/05 09:38:27;;;;;;;4.37;3.97;;;10.10;99.90;;;;;;4994709;28;20844;-67
2022/11/05 09:41:07;;;;;;;4.60;3.83;;;10.00;99.90;;;;;;4994774;28;20430;-68
2022/11/05 09:43:40;;;;;;;5.30;4.80;;;10.00;99.90;;;;;;4994910;28;20266;-67
2022/11/05 09:46:24;;;;;;;7.07;4.33;;;9.90;99.90;;;;;;4994834;28;20415;-67
2022/11/05 09:48:57;;;;;;;4.30;3.60;;;9.90;99.90;;;;;;4994553;28;20410;-68
2022/11/05 09:51:23;;;;;;;5.17;4.50;;;9.80;99.90;;;;;;4994691;28;20411;-67
2022/11/05 09:53:49;;;;;;;7.67;4.50;;;9.90;99.90;;;;;;4994621;28;20421;-66
2022/11/05 09:56:25;;;;;;;5.33;4.30;;;9.70;99.90;;;;;;4994634;28;20638;-66
2022/11/05 09:59:06;;;;;;;8.10;6.43;;;9.70;99.90;;;;;;4994333;28;20414;-68
2022/11/05 10:01:36;;;;;;;6.60;5.00;;;9.70;99.90;;;;;;4994489;28;21073;-68
2022/11/05 10:04:08;;;;;;;6.83;5.60;;;9.70;99.90;;;;;;4994498;28;20429;-68
2022/11/05 10:06:39;;;;;;;6.80;5.60;;;9.70;99.90;;;;;;4994324;28;20855;-68
2022/11/05 10:09:25;;;;;;;5.77;5.27;;;9.70;99.90;;;;;;4994145;28;20442;-70
2022/11/05 10:11:56;;;;;;;6.43;5.83;;;9.70;99.90;;;;;;4994286;28;20521;-68
2022/11/05 10:14:27;;;;;;;6.80;6.03;;;9.70;99.90;;;;;;4994303;28;20417;-67
2022/11/05 10:17:02;;;;;;;7.30;6.60;;;9.80;99.90;;;;;;4993040;28;20509;-69
2022/11/05 10:19:52;;;;;;;7.20;6.50;;;9.90;99.90;;;;;;4993834;28;20500;-67
2022/11/05 10:22:18;;;;;;;7.70;6.60;;;9.80;99.90;;;;;;4993375;28;20513;-68
2022/11/05 10:24:46;;;;;;;10.33;7.57;;;9.70;99.90;;;;;;4994028;28;20449;-67
2022/11/05 10:27:23;;;;;;;8.83;7.93;;;9.70;99.90;;;;;;4994005;28;20418;-67
2022/11/05 10:29:49;;;;;;;10.37;8.17;;;9.70;99.90;;;;;;4993739;28;20779;-68
2022/11/05 10:32:27;;;;;;;9.60;8.57;;;9.70;99.90;;;;;;4993821;28;20455;-68
2022/11/05 10:34:54;;;;;;;10.10;8.40;;;9.80;99.90;;;;;;4993923;28;20441;-68
2022/11/05 10:37:22;;;;;;;8.80;7.50;;;9.90;99.90;;;;;;4993806;28;20415;-68
2022/11/05 10:39:47;;;;;;;13.43;8.53;;;10.00;99.90;;;;;;4993511;28;20431;-68
2022/11/05 10:42:33;;;;;;;9.77;7.23;;;10.10;99.90;;;;;;4992773;28;20472;-68
2022/11/05 10:45:25;;;;;;;17.07;8.30;;;10.00;99.90;;;;;;4993668;28;20198;-67
2022/11/05 10:47:57;;;;;;;7.60;6.87;;;10.20;99.90;;;;;;4993750;28;20411;-67
2022/11/05 10:50:26;;;;;;;10.60;8.13;;;10.40;99.90;;;;;;4993333;28;20414;-68
2022/11/05 10:53:10;;;;;;;8.23;7.43;;;10.70;99.90;;;;;;4993370;28;20444;-69
2022/11/05 10:55:47;;;;;;;12.30;7.80;;;10.80;99.90;;;;;;4993542;28;20578;-67
2022/11/05 10:58:15;;;;;;;12.30;7.67;;;11.10;99.90;;;;;;4993170;28;21025;-65
2022/11/05 11:01:05;;;;;;;9.90;8.63;;;11.20;99.90;;;;;;4993456;28;20421;-67
2022/11/05 11:03:56;;;;;;;7.40;6.70;;;11.30;99.90;;;;;;4992923;28;20478;-67
2022/11/05 11:06:36;;;;;;;8.60;7.67;;;11.30;99.90;;;;;;4992371;28;20426;-68
2022/11/05 11:09:07;;;;;;;8.67;7.50;;;11.30;99.90;;;;;;4992975;28;20426;-68
2022/11/05 11:11:35;;;;;;;9.83;8.10;;;11.30;99.90;;;;;;4993197;28;20496;-68
2022/11/05 11:14:04;;;;;;;11.73;9.50;;;11.10;99.90;;;;;;4993110;28;20414;-66
2022/11/05 11:16:38;;;;;;;10.37;8.70;;;11.00;99.90;;;;;;4993134;28;20425;-68
2022/11/05 11:19:26;;;;;;;11.27;8.90;;;11.00;99.90;;;;;;4992897;28;20935;-68
2022/11/05 11:22:04;;;;;;;11.60;9.60;;;11.00;99.90;;;;;;4992914;28;20470;-68
2022/11/05 11:24:36;;;;;;;11.60;8.60;;;11.20;99.90;;;;;;4993012;28;20413;-68
2022/11/05 11:27:11;;;;;;;9.33;8.43;;;11.40;99.90;;;;;;4993031;28;20415;-68
2022/11/05 11:29:40;;;;;;;9.93;8.93;;;11.70;99.90;;;;;;4992634;28;20414;-68
2022/11/05 11:32:14;;;;;;;7.80;7.00;;;12.10;99.90;;;;;;4992811;28;20446;-68
2022/11/05 11:34:40;;;;;;;9.00;7.57;;;12.60;99.90;;;;;;4992899;28;20423;-67
2022/11/05 11:37:10;;;;;;;8.10;7.30;;;12.70;99.90;;;;;;4992788;28;20426;-68
2022/11/05 11:39:37;;;;;;;11.40;6.70;;;12.90;99.90;;;;;;4992536;28;20777;-67
2022/11/05 11:42:13;;;;;;;7.63;6.93;;;12.80;99.90;;;;;;4992699;28;20482;-69
2022/11/05 11:44:44;;;;;;;7.93;6.87;;;12.70;99.90;;;;;;4992842;28;20426;-68
2022/11/05 11:47:13;;;;;;;6.70;6.10;;;12.50;99.90;;;;;;4992681;28;20418;-68
2022/11/05 11:49:46;;;;;;;8.57;7.03;;;12.40;99.90;;;;;;4992420;28;20449;-67
2022/11/05 11:52:23;;;;;;;8.80;7.63;;;12.20;99.90;;;;;;4992592;28;20873;-68
2022/11/05 11:54:50;;;;;;;8.33;7.43;;;12.10;99.90;;;;;;4992757;28;20835;-67
2022/11/05 11:57:27;;;;;;;7.90;7.17;;;11.80;99.90;;;;;;4992603;28;20473;-67
2022/11/05 11:59:54;;;;;;;11.40;7.13;;;11.90;99.90;;;;;;4992343;28;20429;-67
2022/11/05 12:02:20;;;;;;;10.50;8.43;;;12.00;99.90;;;;;;4992493;28;20471;-68
2022/11/05 12:05:19;;;;;;;8.87;6.80;;;12.30;99.90;;;;;;4992611;28;20415;-67
2022/11/05 12:07:56;;;;;;;8.97;8.07;;;12.60;99.90;;;;;;4992640;28;20600;-68
2022/11/05 12:10:40;;;;;;;8.73;7.97;;;13.10;99.90;;;;;;4992351;28;20834;-68
2022/11/05 12:13:17;;;;;;;7.47;6.70;;;13.20;99.90;;;;;;4992509;28;20505;-68
2022/11/05 12:15:49;;;;;;;8.50;6.73;;;13.60;99.90;;;;;;4992489;28;20428;-69
2022/11/05 12:18:24;;;;;;;7.43;6.47;;;15.30;99.90;;;;;;4992152;28;20484;-67
2022/11/05 12:21:13;;;;;;;7.20;6.23;;;18.40;99.90;;;;;;4992905;28;20828;-68
2022/11/05 12:24:01;;;;;;;9.43;8.70;;;20.50;99.90;;;;;;4992440;28;20430;-68
2022/11/05 12:26:42;;;;;;;6.30;5.70;;;20.50;99.90;;;;;;4992441;28;20426;-68
2022/11/05 12:29:16;;;;;;;4.83;4.43;;;21.60;98.90;;;;;;4992117;28;20434;-68
2022/11/05 12:32:11;;;;;;;6.10;5.70;;;20.70;98.10;;;;;;4991056;28;20442;-67
2022/11/05 12:34:39;;;;;;;7.70;5.33;;;20.80;97.90;;;;;;4992382;28;20429;-68
2022/11/05 12:37:31;;;;;;;5.50;5.07;;;20.60;99.10;;;;;;4992277;28;20465;-68
2022/11/05 12:40:25;;;;;;;7.10;6.40;;;19.80;99.90;;;;;;4991439;28;20510;-68
2022/11/05 12:43:30;;;;;;;6.70;6.20;;;20.70;98.40;;;;;;4991915;28;20474;-68
2022/11/05 12:46:23;;;;;;;7.03;6.33;;;18.90;99.90;;;;;;4992238;28;20422;-68
2022/11/05 12:49:20;;;;;;;6.70;6.10;;;17.40;99.90;;;;;;4991998;28;20784;-68
2022/11/05 12:51:55;;;;;;;7.33;6.73;;;15.90;99.90;;;;;;4992105;28;20922;-67
2022/11/05 12:54:43;;;;;;;7.20;6.50;;;14.70;99.90;;;;;;4992157;28;20445;-67
2022/11/05 12:57:11;;;;;;;7.03;6.33;;;14.10;99.90;;;;;;4991585;28;20430;-68
2022/11/05 12:59:47;;;;;;;7.03;5.83;;;14.00;99.90;;;;;;4991799;28;20426;-67
2022/11/05 13:02:32;;;;;;;7.00;6.30;;;13.80;99.90;;;;;;4990717;28;20930;-68
2022/11/05 13:05:32;;;;;;;5.83;5.30;;;13.80;99.90;;;;;;4993756;28;20411;-67
2022/11/05 13:08:15;;;;;;;7.10;5.30;;;13.40;99.90;;;;;;4995560;28;20526;-68
2022/11/05 13:10:53;;;;;;;6.70;5.20;;;12.90;99.90;;;;;;4995379;28;20414;-67
2022/11/05 13:13:28;;;;;;;7.63;6.43;;;12.70;99.90;;;;;;4995394;28;20488;-67
2022/11/05 13:16:16;;;;;;;6.80;6.03;;;12.60;99.90;;;;;;4994188;28;20452;-67
2022/11/05 13:18:50;;;;;;;11.20;6.57;;;12.40;99.90;;;;;;4993535;28;20522;-67
2022/11/05 13:21:22;;;;;;;5.97;5.43;;;12.30;99.90;;;;;;4995147;28;20498;-67
2022/11/05 13:24:17;;;;;;;7.60;6.90;;;12.20;99.90;;;;;;4995256;28;20421;-67
2022/11/05 13:26:51;;;;;;;7.40;6.27;;;12.10;99.90;;;;;;4995161;28;20414;-67
2022/11/05 13:29:39;;;;;;;10.03;8.50;;;12.00;99.90;;;;;;4994829;28;20421;-68
2022/11/05 13:32:23;;;;;;;10.03;7.10;;;11.90;99.90;;;;;;4995001;28;20476;-67
2022/11/05 13:34:48;;;;;;;10.20;8.50;;;11.90;99.90;;;;;;4995037;28;20509;-67
2022/11/05 13:40:09;;;;;;;9.10;7.50;;;11.80;99.90;;;;;;4994641;28;20549;-67
2022/11/05 13:43:01;;;;;;;8.90;7.63;;;11.70;99.90;;;;;;4994655;28;20470;-67
2022/11/05 13:45:46;;;;;;;9.37;8.40;;;11.70;99.90;;;;;;4995053;28;20948;-67
2022/11/05 13:48:40;;;;;;;7.77;7.07;;;11.70;99.90;;;;;;4994548;28;20419;-67
2022/11/05 13:51:28;;;;;;;8.23;7.43;;;11.70;99.90;;;;;;4994610;28;20449;-67
2022/11/05 13:54:18;;;;;;;10.53;8.43;;;11.60;99.90;;;;;;4994520;28;20473;-67